Time;durP1;ratioP1;P1;durP2;ratioP2;P2;SDS_P1;SDS_P2;PMS_P1;PMS_P2;Temp;Humidity;BMP_temperature;BMP_pressure;BME280_temperature;BME280_humidity;BME280_pressure;Samples;Min_cycle;Max_cycle;Signal;HPM_P1;HPM_P2
2023/07/01 00:01:56;;;;;;;6.45;3.25;;;18.20;99.90;;;;;;5053747;28;20032;-70
2023/07/01 00:04:21;;;;;;;5.07;3.20;;;18.20;99.90;;;;;;5053199;28;20408;-71
2023/07/01 00:06:47;;;;;;;5.20;3.22;;;18.20;99.90;;;;;;5053821;28;20021;-70
2023/07/01 00:09:12;;;;;;;5.22;2.83;;;18.20;99.90;;;;;;5053342;28;20471;-70
2023/07/01 00:11:38;;;;;;;5.65;2.67;;;18.10;99.90;;;;;;5053566;28;20060;-71
2023/07/01 00:14:04;;;;;;;6.60;3.25;;;18.10;99.90;;;;;;5053546;28;20024;-71
2023/07/01 00:16:30;;;;;;;5.65;2.88;;;18.10;99.90;;;;;;5054051;28;20025;-70
2023/07/01 00:18:56;;;;;;;6.15;3.55;;;18.10;99.90;;;;;;5051950;28;20430;-71
2023/07/01 00:21:21;;;;;;;4.30;2.53;;;18.10;99.90;;;;;;5053293;28;20025;-71
2023/07/01 00:23:47;;;;;;;4.63;2.75;;;18.10;99.90;;;;;;5051868;28;20045;-71
2023/07/01 00:26:12;;;;;;;8.40;2.95;;;18.10;99.90;;;;;;5051849;28;20129;-71
2023/07/01 00:28:38;;;;;;;5.18;2.45;;;18.10;99.90;;;;;;5051801;28;20365;-70
2023/07/01 00:31:04;;;;;;;3.90;2.60;;;18.10;99.90;;;;;;5053111;28;20025;-70
2023/07/01 00:33:29;;;;;;;4.25;2.83;;;18.10;99.90;;;;;;5053240;28;20372;-71
2023/07/01 00:35:55;;;;;;;5.13;2.72;;;18.00;99.90;;;;;;5052959;28;20072;-71
2023/07/01 00:38:20;;;;;;;4.03;2.58;;;18.00;99.90;;;;;;5053165;28;20508;-70
2023/07/01 00:40:46;;;;;;;3.13;2.38;;;18.00;99.90;;;;;;5052668;28;20028;-70
2023/07/01 00:43:11;;;;;;;4.78;2.70;;;18.00;99.90;;;;;;5052865;28;20025;-71
2023/07/01 00:45:37;;;;;;;5.85;2.90;;;18.00;99.90;;;;;;5053033;28;20031;-70
2023/07/01 00:48:03;;;;;;;7.93;2.90;;;18.00;99.90;;;;;;5052960;28;20489;-70
2023/07/01 00:50:29;;;;;;;3.20;2.33;;;18.00;99.90;;;;;;5052709;28;20095;-70
2023/07/01 00:52:55;;;;;;;4.72;2.60;;;18.00;99.90;;;;;;5052804;28;20112;-70
2023/07/01 00:55:21;;;;;;;5.65;2.65;;;18.00;99.90;;;;;;5052814;28;20121;-70
2023/07/01 00:57:47;;;;;;;6.07;2.65;;;18.00;99.90;;;;;;5052661;28;20033;-70
2023/07/01 01:00:13;;;;;;;5.07;2.50;;;18.00;99.90;;;;;;5052719;28;20241;-70
2023/07/01 01:02:55;;;;;;;5.65;2.78;;;18.00;99.90;;;;;;5052582;28;20385;-70
2023/07/01 01:05:38;;;;;;;4.70;2.78;;;18.00;99.90;;;;;;5052667;28;20024;-70
2023/07/01 01:08:17;;;;;;;3.70;2.47;;;18.00;99.90;;;;;;5052576;28;20108;-70
2023/07/01 01:10:46;;;;;;;4.25;2.60;;;18.00;99.90;;;;;;5051149;28;20032;-70
2023/07/01 01:13:14;;;;;;;5.88;2.40;;;17.90;99.90;;;;;;5051226;28;20119;-70
2023/07/01 01:15:40;;;;;;;5.60;2.65;;;17.90;99.90;;;;;;5051558;28;20047;-70
2023/07/01 01:18:07;;;;;;;4.82;2.80;;;17.90;99.90;;;;;;5052268;28;20028;-71
2023/07/01 01:20:36;;;;;;;3.78;2.45;;;17.80;99.90;;;;;;5052244;28;20488;-71
2023/07/01 01:23:34;;;;;;;6.55;2.67;;;17.80;99.90;;;;;;5050865;28;20029;-71
2023/07/01 01:26:19;;;;;;;5.18;2.38;;;17.80;99.90;;;;;;5050957;28;20021;-71
2023/07/01 01:28:46;;;;;;;5.05;2.50;;;17.80;99.90;;;;;;5052172;28;20055;-70
2023/07/01 01:31:11;;;;;;;11.38;2.63;;;17.80;99.90;;;;;;5052197;28;20100;-71
2023/07/01 01:33:38;;;;;;;4.68;2.75;;;17.70;99.90;;;;;;5052079;28;20065;-70
2023/07/01 01:36:08;;;;;;;4.68;2.35;;;17.80;99.90;;;;;;5052043;28;20115;-70
2023/07/01 01:38:36;;;;;;;5.80;2.58;;;17.70;99.90;;;;;;5051702;28;20469;-70
2023/07/01 01:41:15;;;;;;;6.20;2.55;;;17.80;99.90;;;;;;5051825;28;20041;-70
2023/07/01 01:43:53;;;;;;;5.05;3.25;;;17.70;99.90;;;;;;5051950;28;20499;-70
2023/07/01 01:46:21;;;;;;;6.53;3.08;;;17.70;99.90;;;;;;5051907;28;20013;-70
2023/07/01 01:48:47;;;;;;;4.90;2.70;;;17.70;99.90;;;;;;5051809;28;20455;-70
2023/07/01 01:51:14;;;;;;;4.25;2.60;;;17.70;99.90;;;;;;5051790;28;20021;-71
2023/07/01 01:53:42;;;;;;;5.68;2.80;;;17.70;99.90;;;;;;5050301;28;20021;-70
2023/07/01 01:56:09;;;;;;;3.88;2.70;;;17.70;99.90;;;;;;5051671;28;20515;-70
2023/07/01 01:58:35;;;;;;;3.95;2.70;;;17.70;99.90;;;;;;5050247;28;20033;-70
2023/07/01 02:01:01;;;;;;;4.32;2.33;;;17.70;99.90;;;;;;5051512;28;20531;-70
2023/07/01 02:03:27;;;;;;;7.47;2.47;;;17.70;99.90;;;;;;5051342;28;20150;-70
2023/07/01 02:05:53;;;;;;;3.40;2.28;;;17.80;99.90;;;;;;5051774;28;20124;-70
2023/07/01 02:08:19;;;;;;;5.78;2.70;;;17.80;99.90;;;;;;5051504;28;20168;-70
2023/07/01 02:10:45;;;;;;;3.22;2.20;;;17.70;99.90;;;;;;5038483;22;20127;-70
2023/07/01 02:13:10;;;;;;;3.78;2.70;;;17.80;99.90;;;;;;5022607;28;20099;-71
2023/07/01 02:15:36;;;;;;;3.65;2.45;;;17.80;99.90;;;;;;5024593;28;20410;-71
2023/07/01 02:18:03;;;;;;;4.55;2.67;;;17.80;99.90;;;;;;5024890;28;20033;-72
2023/07/01 02:20:29;;;;;;;4.45;2.90;;;17.80;99.90;;;;;;5023808;28;20033;-71
2023/07/01 02:22:55;;;;;;;3.90;2.20;;;17.70;99.90;;;;;;5019424;28;20037;-71
2023/07/01 02:25:21;;;;;;;4.70;2.72;;;17.80;99.90;;;;;;5036270;28;20037;-71
2023/07/01 02:27:46;;;;;;;4.20;2.25;;;17.80;99.90;;;;;;5023406;28;20014;-71
2023/07/01 02:30:12;;;;;;;4.93;2.97;;;17.70;99.90;;;;;;5022364;28;20022;-71
2023/07/01 02:32:37;;;;;;;4.88;2.60;;;17.70;99.90;;;;;;5021397;28;20037;-70
2023/07/01 02:35:03;;;;;;;5.82;2.70;;;17.80;99.90;;;;;;5023080;28;20069;-70
2023/07/01 02:37:29;;;;;;;6.18;2.75;;;17.70;99.90;;;;;;5020168;28;20030;-71
2023/07/01 02:39:55;;;;;;;3.22;2.40;;;17.70;99.90;;;;;;5023834;28;20025;-71
2023/07/01 02:42:20;;;;;;;5.45;2.30;;;17.70;99.90;;;;;;5018611;28;20029;-70
2023/07/01 02:44:47;;;;;;;4.75;2.20;;;17.70;99.90;;;;;;5022938;28;20021;-71
2023/07/01 02:47:13;;;;;;;4.57;2.58;;;17.70;99.90;;;;;;5022371;28;20059;-70
2023/07/01 02:49:40;;;;;;;9.05;2.83;;;17.70;99.90;;;;;;5023706;28;20022;-70
2023/07/01 02:52:08;;;;;;;5.05;3.13;;;17.70;99.90;;;;;;5020330;28;20040;-71
2023/07/01 02:54:34;;;;;;;4.13;2.15;;;17.70;99.90;;;;;;5024258;28;20522;-71
2023/07/01 02:57:00;;;;;;;3.13;2.45;;;17.70;99.90;;;;;;5021263;28;20053;-70
2023/07/01 02:59:25;;;;;;;4.38;2.35;;;17.70;99.90;;;;;;5020708;28;20033;-72
2023/07/01 03:01:51;;;;;;;5.18;2.60;;;17.60;99.90;;;;;;5022970;28;20036;-70
2023/07/01 03:04:17;;;;;;;5.35;2.28;;;17.60;99.90;;;;;;5018677;28;20037;-71
2023/07/01 03:06:42;;;;;;;4.10;2.40;;;17.60;99.90;;;;;;5023749;28;20018;-71
2023/07/01 03:09:08;;;;;;;5.35;2.58;;;17.60;99.90;;;;;;5021679;28;20033;-71
2023/07/01 03:11:35;;;;;;;6.55;2.45;;;17.60;99.90;;;;;;5024845;28;20168;-70
2023/07/01 03:14:02;;;;;;;3.83;2.55;;;17.50;99.90;;;;;;5023879;28;20025;-70
2023/07/01 03:16:29;;;;;;;3.45;2.55;;;17.50;99.90;;;;;;5024041;28;20115;-72
2023/07/01 03:18:54;;;;;;;4.07;2.22;;;17.50;99.90;;;;;;5020212;28;20120;-71
2023/07/01 03:21:20;;;;;;;3.28;2.40;;;17.50;99.90;;;;;;5020236;28;20097;-71
2023/07/01 03:23:45;;;;;;;4.90;2.90;;;17.50;99.90;;;;;;5022006;28;20030;-71
2023/07/01 03:26:11;;;;;;;4.05;2.55;;;17.50;99.90;;;;;;5024737;28;20104;-71
2023/07/01 03:28:36;;;;;;;3.83;2.92;;;17.50;99.90;;;;;;5020830;28;20480;-71
2023/07/01 03:31:04;;;;;;;5.20;2.72;;;17.50;99.90;;;;;;5022510;28;20034;-71
2023/07/01 03:33:29;;;;;;;5.90;2.60;;;17.50;99.90;;;;;;5022426;28;20017;-73
2023/07/01 03:35:55;;;;;;;4.20;2.55;;;17.50;99.90;;;;;;5021966;28;20083;-73
2023/07/01 03:38:22;;;;;;;4.63;2.42;;;17.50;99.90;;;;;;5024663;28;20037;-73
2023/07/01 03:40:47;;;;;;;3.28;2.40;;;17.50;99.90;;;;;;5027110;28;20025;-73
2023/07/01 03:43:13;;;;;;;4.80;2.85;;;17.50;99.90;;;;;;5030038;28;20056;-73
2023/07/01 03:45:38;;;;;;;5.38;2.38;;;17.50;99.90;;;;;;5027488;28;20022;-72
2023/07/01 03:48:05;;;;;;;5.03;2.40;;;17.50;99.90;;;;;;5031473;28;20139;-72
2023/07/01 03:50:31;;;;;;;6.57;2.63;;;17.40;99.90;;;;;;5026275;28;20431;-72
2023/07/01 03:52:56;;;;;;;8.30;2.60;;;17.50;99.90;;;;;;5027152;28;20069;-72
2023/07/01 03:55:22;;;;;;;3.22;1.90;;;17.50;99.90;;;;;;5024950;28;20411;-72
2023/07/01 03:57:47;;;;;;;8.77;2.85;;;17.50;99.90;;;;;;5025850;28;20361;-72
2023/07/01 04:00:19;;;;;;;7.88;2.83;;;17.40;99.90;;;;;;5024153;28;20042;-72
2023/07/01 04:02:48;;;;;;;9.77;2.67;;;17.40;99.90;;;;;;5024708;28;20028;-72
2023/07/01 04:05:16;;;;;;;7.35;2.50;;;17.40;99.90;;;;;;5027015;28;20032;-72
2023/07/01 04:07:43;;;;;;;4.22;2.38;;;17.40;99.90;;;;;;5023591;28;20068;-72
2023/07/01 04:10:10;;;;;;;5.32;2.88;;;17.50;99.90;;;;;;5024338;28;20424;-72
2023/07/01 04:12:37;;;;;;;4.93;2.30;;;17.40;99.90;;;;;;5029775;28;20029;-72
2023/07/01 04:15:09;;;;;;;3.15;2.50;;;17.50;99.90;;;;;;5028194;28;20418;-72
2023/07/01 04:17:36;;;;;;;4.43;2.80;;;17.50;99.90;;;;;;5028998;28;20018;-72
2023/07/01 04:20:03;;;;;;;3.53;2.28;;;17.50;99.90;;;;;;5025541;28;20474;-71
2023/07/01 04:22:29;;;;;;;6.53;2.80;;;17.40;99.90;;;;;;5033231;28;20026;-72
2023/07/01 04:24:55;;;;;;;6.63;2.40;;;17.40;99.90;;;;;;5027930;28;20175;-71
2023/07/01 04:27:20;;;;;;;5.70;2.97;;;17.50;99.90;;;;;;5037262;28;20021;-71
2023/07/01 04:29:46;;;;;;;4.20;2.47;;;17.50;99.90;;;;;;5038940;28;20048;-71
2023/07/01 04:32:12;;;;;;;8.82;2.92;;;17.50;99.90;;;;;;5032772;28;20526;-71
2023/07/01 04:34:37;;;;;;;4.50;3.03;;;17.50;99.90;;;;;;5030754;28;20025;-71
2023/07/01 04:37:03;;;;;;;6.05;3.10;;;17.50;99.90;;;;;;5032778;28;20041;-71
2023/07/01 04:39:29;;;;;;;4.95;2.80;;;17.50;99.90;;;;;;5028697;28;20025;-71
2023/07/01 04:41:54;;;;;;;5.50;3.03;;;17.50;99.90;;;;;;5029418;28;20037;-72
2023/07/01 04:44:23;;;;;;;4.82;2.50;;;17.40;99.90;;;;;;5031780;28;20364;-71
2023/07/01 04:46:50;;;;;;;5.38;2.75;;;17.40;99.90;;;;;;5029932;28;20014;-71
2023/07/01 04:49:15;;;;;;;4.82;2.38;;;17.50;99.90;;;;;;5031143;28;20025;-70
2023/07/01 04:51:41;;;;;;;5.22;2.50;;;17.40;99.90;;;;;;5029356;28;20486;-72
2023/07/01 04:54:07;;;;;;;5.75;2.67;;;17.40;99.90;;;;;;5033562;28;20107;-72
2023/07/01 04:56:32;;;;;;;4.18;2.53;;;17.50;99.90;;;;;;5027701;28;20025;-72
2023/07/01 04:58:58;;;;;;;6.63;2.83;;;17.50;99.90;;;;;;5034302;28;20368;-71
2023/07/01 05:01:23;;;;;;;5.55;3.13;;;17.60;99.90;;;;;;5034771;28;20024;-71
2023/07/01 05:03:49;;;;;;;5.03;2.78;;;17.70;99.90;;;;;;5029913;28;20033;-72
2023/07/01 05:06:15;;;;;;;6.90;2.53;;;17.90;99.90;;;;;;5038978;28;20033;-71
2023/07/01 05:08:41;;;;;;;4.68;2.20;;;17.90;99.90;;;;;;5039315;28;20022;-71
2023/07/01 05:11:06;;;;;;;6.97;2.53;;;18.10;99.90;;;;;;5034645;28;20033;-70
2023/07/01 05:13:32;;;;;;;4.18;2.22;;;18.20;99.90;;;;;;5032758;28;20038;-72
2023/07/01 05:15:58;;;;;;;3.13;2.00;;;18.30;99.90;;;;;;5032995;28;20029;-72
2023/07/01 05:18:23;;;;;;;6.70;2.95;;;18.40;99.90;;;;;;5036205;28;20121;-72
2023/07/01 05:20:49;;;;;;;3.72;2.83;;;18.50;99.90;;;;;;5029608;28;20404;-72
2023/07/01 05:23:14;;;;;;;6.78;3.30;;;18.50;99.90;;;;;;5030665;28;20090;-72
2023/07/01 05:25:40;;;;;;;5.35;2.33;;;18.70;99.90;;;;;;5027821;28;20029;-72
2023/07/01 05:28:06;;;;;;;6.10;2.78;;;18.80;99.90;;;;;;5026090;28;20153;-73
2023/07/01 05:30:31;;;;;;;5.40;2.75;;;18.80;99.90;;;;;;5019429;28;20041;-73
2023/07/01 05:32:57;;;;;;;4.47;2.97;;;18.90;99.90;;;;;;5025423;28;20052;-73
2023/07/01 05:35:22;;;;;;;6.10;2.40;;;19.00;99.90;;;;;;5026076;28;20393;-72
2023/07/01 05:37:48;;;;;;;3.45;2.60;;;19.10;99.90;;;;;;5022733;28;20029;-72
2023/07/01 05:40:14;;;;;;;4.63;2.53;;;19.20;99.90;;;;;;5029594;28;20041;-72
2023/07/01 05:42:39;;;;;;;8.75;2.63;;;19.30;99.90;;;;;;5026171;28;20034;-73
2023/07/01 05:45:05;;;;;;;4.40;2.10;;;19.30;99.90;;;;;;5028798;28;20022;-72
2023/07/01 05:47:32;;;;;;;5.88;2.47;;;19.40;99.90;;;;;;5026566;28;20045;-70
2023/07/01 05:49:57;;;;;;;3.53;2.47;;;19.50;99.90;;;;;;5028985;28;20021;-71
2023/07/01 05:52:23;;;;;;;6.30;2.47;;;19.50;99.90;;;;;;5031427;28;20133;-71
2023/07/01 05:54:48;;;;;;;5.40;2.53;;;19.50;99.90;;;;;;5027411;28;20025;-72
2023/07/01 05:57:14;;;;;;;6.47;2.42;;;19.60;99.90;;;;;;5023846;28;20369;-71
2023/07/01 05:59:40;;;;;;;3.60;1.88;;;19.70;99.90;;;;;;5028510;28;20475;-71
2023/07/01 06:02:07;;;;;;;7.88;2.47;;;19.70;99.90;;;;;;5025966;28;20622;-71
2023/07/01 06:04:33;;;;;;;3.80;2.13;;;19.80;99.90;;;;;;5028002;28;20112;-70
2023/07/01 06:06:58;;;;;;;6.68;2.83;;;19.90;99.90;;;;;;5026569;28;20115;-71
2023/07/01 06:09:24;;;;;;;3.22;2.22;;;19.90;99.90;;;;;;5029364;28;20033;-71
2023/07/01 06:11:50;;;;;;;4.53;2.17;;;20.00;99.90;;;;;;5033747;28;20076;-71
2023/07/01 06:14:15;;;;;;;4.70;2.50;;;20.00;99.90;;;;;;5030705;28;20523;-71
2023/07/01 06:16:41;;;;;;;2.70;2.20;;;20.10;99.90;;;;;;5027273;28;20028;-71
2023/07/01 06:19:06;;;;;;;3.50;2.30;;;20.10;99.90;;;;;;5027894;28;20549;-71
2023/07/01 06:21:32;;;;;;;6.65;2.40;;;20.10;99.90;;;;;;5026088;28;20039;-71
2023/07/01 06:23:57;;;;;;;2.83;2.05;;;20.10;99.90;;;;;;5030588;28;20533;-73
2023/07/01 06:26:23;;;;;;;3.40;2.20;;;20.20;99.90;;;;;;5031709;28;20101;-72
2023/07/01 06:28:49;;;;;;;4.40;2.30;;;20.20;99.90;;;;;;5026094;28;20178;-72
2023/07/01 06:31:14;;;;;;;3.72;2.15;;;20.30;99.90;;;;;;5028233;28;20038;-72
2023/07/01 06:33:40;;;;;;;2.75;2.22;;;20.30;99.90;;;;;;5025061;28;20029;-71
2023/07/01 06:36:06;;;;;;;4.32;2.65;;;20.40;99.90;;;;;;5025675;28;20037;-71
2023/07/01 06:38:32;;;;;;;2.70;2.03;;;20.40;99.90;;;;;;5022541;28;20071;-72
2023/07/01 06:40:57;;;;;;;6.72;2.47;;;20.50;99.90;;;;;;5027232;28;20134;-72
2023/07/01 06:43:23;;;;;;;10.20;2.20;;;20.50;99.90;;;;;;5021448;28;20033;-71
2023/07/01 06:45:49;;;;;;;8.90;2.40;;;20.50;99.90;;;;;;5028423;28;20033;-72
2023/07/01 06:48:14;;;;;;;7.55;2.38;;;20.60;99.90;;;;;;5026498;28;20068;-71
2023/07/01 06:50:40;;;;;;;4.82;1.60;;;20.60;99.90;;;;;;5024728;28;20076;-71
2023/07/01 06:53:06;;;;;;;2.58;1.60;;;20.60;99.90;;;;;;5026394;28;20037;-70
2023/07/01 06:55:31;;;;;;;3.72;2.08;;;20.70;99.90;;;;;;5025670;28;20025;-70
2023/07/01 06:57:59;;;;;;;3.95;1.67;;;20.70;99.90;;;;;;5029528;28;20037;-70
2023/07/01 07:00:25;;;;;;;5.93;2.25;;;20.70;99.90;;;;;;5026817;28;20026;-70
2023/07/01 07:02:50;;;;;;;3.13;1.88;;;20.70;99.90;;;;;;5022863;28;20029;-70
2023/07/01 07:05:16;;;;;;;3.55;1.80;;;20.80;99.90;;;;;;5028543;28;20021;-70
2023/07/01 07:07:42;;;;;;;4.00;1.80;;;20.80;99.70;;;;;;5023279;28;20139;-70
2023/07/01 07:10:07;;;;;;;7.40;2.15;;;20.80;99.70;;;;;;5025833;28;20425;-70
2023/07/01 07:12:33;;;;;;;4.75;2.08;;;20.90;99.30;;;;;;5027443;28;20040;-71
2023/07/01 07:14:59;;;;;;;4.32;1.85;;;20.90;98.70;;;;;;5027490;28;20032;-70
2023/07/01 07:17:25;;;;;;;4.70;1.98;;;21.00;98.60;;;;;;5032131;28;20437;-71
2023/07/01 07:19:50;;;;;;;3.60;1.70;;;21.00;98.90;;;;;;5036382;28;20025;-70
2023/07/01 07:22:16;;;;;;;2.80;1.73;;;21.00;98.60;;;;;;5028701;28;20514;-71
2023/07/01 07:24:41;;;;;;;3.80;1.88;;;21.10;98.00;;;;;;5032871;28;20017;-70
2023/07/01 07:27:07;;;;;;;4.78;2.08;;;21.10;97.80;;;;;;5034129;28;20025;-71
2023/07/01 07:29:33;;;;;;;3.15;1.58;;;21.20;97.90;;;;;;5029748;28;20013;-70
2023/07/01 07:31:59;;;;;;;5.05;2.13;;;21.20;97.40;;;;;;5032119;28;20076;-71
2023/07/01 07:34:25;;;;;;;3.38;1.50;;;21.20;97.40;;;;;;5033141;28;20033;-71
2023/07/01 07:36:51;;;;;;;4.45;2.00;;;21.20;97.20;;;;;;5033820;28;20026;-71
2023/07/01 07:39:17;;;;;;;7.82;2.42;;;21.20;97.00;;;;;;5033734;28;20018;-71
2023/07/01 07:41:43;;;;;;;4.10;1.80;;;21.30;97.10;;;;;;5031570;28;20033;-71
2023/07/01 07:44:09;;;;;;;4.47;1.67;;;21.30;97.20;;;;;;5030636;28;20090;-71
2023/07/01 07:46:35;;;;;;;2.50;1.52;;;21.30;97.10;;;;;;5028502;28;20056;-71
2023/07/01 07:49:02;;;;;;;5.60;1.77;;;21.40;97.40;;;;;;5031405;28;20099;-71
2023/07/01 07:51:28;;;;;;;6.10;1.73;;;21.40;96.60;;;;;;5031811;28;20100;-71
2023/07/01 07:53:54;;;;;;;4.13;1.70;;;21.40;95.30;;;;;;5026649;28;20520;-71
2023/07/01 07:56:19;;;;;;;4.07;1.88;;;21.50;95.50;;;;;;5029244;28;20377;-71
2023/07/01 07:58:45;;;;;;;6.07;1.70;;;21.60;95.40;;;;;;5029566;28;20032;-71
2023/07/01 08:01:11;;;;;;;5.80;1.70;;;21.60;95.40;;;;;;5031028;28;20541;-71
2023/07/01 08:03:38;;;;;;;2.78;1.65;;;21.70;95.20;;;;;;5029950;28;20087;-71
2023/07/01 08:06:04;;;;;;;7.25;2.00;;;21.70;95.10;;;;;;5025177;28;20360;-71
2023/07/01 08:08:30;;;;;;;3.58;1.50;;;21.80;94.20;;;;;;5025418;28;20017;-72
2023/07/01 08:10:55;;;;;;;5.60;1.75;;;21.80;93.90;;;;;;5067505;23;20103;-75
2023/07/01 08:13:21;;;;;;;4.95;1.90;;;21.90;94.20;;;;;;5046016;28;20029;-75
2023/07/01 08:15:47;;;;;;;4.25;1.60;;;22.00;94.20;;;;;;5051361;28;20036;-75
2023/07/01 08:18:13;;;;;;;2.88;1.70;;;22.10;93.90;;;;;;5049108;28;20120;-75
2023/07/01 08:20:38;;;;;;;3.88;1.83;;;22.10;93.30;;;;;;5048925;28;20124;-74
2023/07/01 08:23:04;;;;;;;3.45;1.73;;;22.10;93.30;;;;;;5051110;28;20037;-75
2023/07/01 08:25:30;;;;;;;5.35;2.08;;;22.10;93.10;;;;;;5049744;28;20479;-75
2023/07/01 08:27:58;;;;;;;6.15;1.70;;;22.10;93.10;;;;;;5052340;28;20036;-75
2023/07/01 08:30:24;;;;;;;6.55;1.70;;;22.10;93.30;;;;;;5050048;28;20021;-75
2023/07/01 08:32:49;;;;;;;2.95;1.70;;;22.20;92.80;;;;;;5050762;28;20040;-74
2023/07/01 08:35:15;;;;;;;4.10;1.70;;;22.30;92.80;;;;;;5048738;28;20021;-75
2023/07/01 08:37:40;;;;;;;2.33;1.60;;;22.40;92.60;;;;;;5053028;28;20498;-74
2023/07/01 08:40:07;;;;;;;4.38;1.80;;;22.50;92.80;;;;;;5052346;28;20414;-75
2023/07/01 08:42:54;;;;;;;3.42;1.77;;;22.70;92.70;;;;;;5052811;28;20475;-75
2023/07/01 08:45:21;;;;;;;2.65;1.63;;;22.80;92.00;;;;;;5051349;28;20028;-75
2023/07/01 08:47:48;;;;;;;3.45;1.85;;;22.90;91.90;;;;;;5054067;28;20104;-75
2023/07/01 08:50:18;;;;;;;4.07;1.95;;;23.00;91.70;;;;;;5051431;28;20028;-75
2023/07/01 08:52:47;;;;;;;2.35;1.85;;;23.00;91.70;;;;;;5052727;28;20017;-75
2023/07/01 08:55:13;;;;;;;2.53;1.92;;;23.00;91.50;;;;;;5049547;28;20035;-75
2023/07/01 08:57:39;;;;;;;3.05;1.88;;;23.10;91.50;;;;;;5049032;28;20037;-74
2023/07/01 09:00:07;;;;;;;4.15;2.05;;;23.10;90.90;;;;;;5050887;28;20104;-75
2023/07/01 09:02:34;;;;;;;4.40;2.15;;;23.20;90.80;;;;;;5050211;28;20032;-74
2023/07/01 09:05:00;;;;;;;4.90;2.22;;;23.10;90.80;;;;;;5049321;28;20025;-75
2023/07/01 09:07:25;;;;;;;6.57;2.15;;;23.20;91.10;;;;;;5049471;28;20043;-74
2023/07/01 09:09:51;;;;;;;2.83;2.10;;;23.20;91.10;;;;;;5046247;28;20125;-75
2023/07/01 09:12:17;;;;;;;3.50;2.13;;;23.20;91.20;;;;;;5051362;28;20044;-75
2023/07/01 09:15:08;;;;;;;8.90;2.30;;;23.00;90.70;;;;;;5048763;28;20027;-75
2023/07/01 09:17:36;;;;;;;3.90;1.58;;;22.90;90.80;;;;;;5038050;28;20032;-75
2023/07/01 09:20:05;;;;;;;2.72;1.80;;;22.90;90.90;;;;;;5050813;28;20111;-74
2023/07/01 09:22:31;;;;;;;5.32;1.92;;;22.80;90.80;;;;;;5048872;28;20064;-74
2023/07/01 09:24:57;;;;;;;8.10;2.80;;;22.80;91.20;;;;;;5043479;28;20075;-75
2023/07/01 09:27:24;;;;;;;3.85;2.10;;;22.70;90.80;;;;;;5048449;28;20104;-75
2023/07/01 09:29:52;;;;;;;3.78;2.20;;;22.80;90.30;;;;;;5045071;28;20025;-73
2023/07/01 09:32:33;;;;;;;5.43;1.88;;;22.90;89.40;;;;;;5049316;28;20048;-74
2023/07/01 09:34:58;;;;;;;2.70;1.98;;;23.10;89.30;;;;;;5045254;28;20029;-74
2023/07/01 09:37:25;;;;;;;4.05;1.90;;;23.30;88.50;;;;;;5045239;28;20021;-75
2023/07/01 09:39:51;;;;;;;2.70;1.55;;;23.30;87.90;;;;;;5046126;28;20029;-74
2023/07/01 09:42:18;;;;;;;2.20;1.50;;;23.40;86.00;;;;;;5046816;28;20044;-74
2023/07/01 09:45:08;;;;;;;5.32;1.50;;;23.50;85.40;;;;;;5047480;28;20048;-73
2023/07/01 09:47:34;;;;;;;3.85;1.60;;;23.50;84.00;;;;;;5045912;28;20557;-74
2023/07/01 09:50:03;;;;;;;2.47;1.67;;;23.50;82.20;;;;;;5049960;28;20025;-75
2023/07/01 09:52:34;;;;;;;9.32;2.25;;;23.40;82.40;;;;;;5049044;28;20017;-75
2023/07/01 09:55:03;;;;;;;5.85;1.77;;;23.60;83.40;;;;;;5043893;28;20159;-74
2023/07/01 09:57:30;;;;;;;2.83;1.90;;;23.70;83.30;;;;;;5046522;28;20025;-74
2023/07/01 09:59:56;;;;;;;2.47;1.67;;;23.80;82.00;;;;;;5048917;28;20463;-75
2023/07/01 10:02:23;;;;;;;3.85;1.60;;;23.80;80.20;;;;;;5045881;28;20033;-75
2023/07/01 10:04:50;;;;;;;4.43;1.70;;;24.00;80.10;;;;;;5048180;28;20486;-74
2023/07/01 10:07:16;;;;;;;3.15;1.70;;;24.00;79.00;;;;;;5048353;28;20032;-75
2023/07/01 10:09:51;;;;;;;2.50;1.60;;;24.00;78.60;;;;;;5047649;28;20394;-74
2023/07/01 10:12:17;;;;;;;1.80;1.25;;;24.10;77.50;;;;;;5042344;28;20112;-75
2023/07/01 10:14:48;;;;;;;2.20;1.48;;;24.10;77.10;;;;;;5045100;28;20051;-75
2023/07/01 10:17:15;;;;;;;2.28;1.38;;;24.10;77.00;;;;;;5048534;28;20055;-74
2023/07/01 10:19:46;;;;;;;3.13;1.70;;;24.10;77.00;;;;;;5041885;28;20025;-75
2023/07/01 10:22:29;;;;;;;3.80;1.90;;;24.20;77.00;;;;;;5050042;28;20021;-74
2023/07/01 10:25:08;;;;;;;6.53;1.77;;;24.20;75.40;;;;;;5054399;28;20012;-74
2023/07/01 10:27:39;;;;;;;4.43;1.45;;;24.30;74.40;;;;;;5049055;28;20056;-74
2023/07/01 10:30:06;;;;;;;2.75;1.50;;;24.40;74.40;;;;;;5049503;28;20671;-75
2023/07/01 10:32:33;;;;;;;3.60;1.13;;;24.50;73.70;;;;;;5048103;28;20441;-75
2023/07/01 10:34:59;;;;;;;3.58;1.90;;;24.60;73.50;;;;;;5047582;28;20078;-74
2023/07/01 10:37:28;;;;;;;3.58;1.73;;;24.60;72.60;;;;;;5048158;28;20037;-76
2023/07/01 10:39:55;;;;;;;3.53;1.83;;;24.70;72.10;;;;;;5052605;28;20020;-73
2023/07/01 10:42:31;;;;;;;1.83;1.48;;;24.70;73.00;;;;;;5051422;28;20546;-72
2023/07/01 10:45:12;;;;;;;3.83;1.95;;;24.80;72.60;;;;;;5050891;28;20070;-73
2023/07/01 10:47:49;;;;;;;3.72;2.03;;;24.90;73.30;;;;;;5051812;28;20360;-73
2023/07/01 10:50:16;;;;;;;2.72;1.85;;;24.90;71.40;;;;;;5051691;28;20017;-72
2023/07/01 10:52:57;;;;;;;3.58;1.70;;;25.00;70.40;;;;;;5051677;28;20021;-73
2023/07/01 10:55:36;;;;;;;3.33;1.60;;;25.00;70.60;;;;;;5051564;28;20408;-72
2023/07/01 10:58:23;;;;;;;3.03;1.65;;;25.00;70.50;;;;;;5049943;28;20033;-72
2023/07/01 11:00:53;;;;;;;3.30;1.52;;;25.00;70.60;;;;;;5051319;28;20029;-72
2023/07/01 11:03:37;;;;;;;3.30;1.70;;;25.00;70.10;;;;;;5051245;28;20091;-71
2023/07/01 11:06:06;;;;;;;2.65;1.77;;;24.90;69.90;;;;;;5050020;28;20025;-71
2023/07/01 11:08:34;;;;;;;2.63;1.88;;;24.80;69.50;;;;;;5050908;28;20095;-72
2023/07/01 11:11:00;;;;;;;3.08;1.77;;;24.80;68.70;;;;;;5051330;28;20115;-72
2023/07/01 11:13:26;;;;;;;2.28;1.60;;;24.80;68.20;;;;;;5051493;28;20060;-72
2023/07/01 11:16:00;;;;;;;4.30;1.73;;;24.90;68.90;;;;;;5051547;28;20075;-71
2023/07/01 11:18:43;;;;;;;2.65;1.67;;;24.90;68.80;;;;;;5050097;28;20052;-72
2023/07/01 11:21:11;;;;;;;2.67;1.85;;;24.90;67.70;;;;;;5050162;28;20522;-72
2023/07/01 11:23:38;;;;;;;4.65;1.65;;;25.00;68.00;;;;;;5049669;28;20048;-72
2023/07/01 11:26:03;;;;;;;2.22;1.60;;;25.10;67.80;;;;;;5051227;28;20018;-72
2023/07/01 11:28:36;;;;;;;3.33;1.70;;;25.20;67.40;;;;;;5051139;28;20029;-73
2023/07/01 11:31:19;;;;;;;7.90;2.55;;;25.20;67.10;;;;;;5041853;28;20022;-72
2023/07/01 11:33:54;;;;;;;3.22;1.55;;;25.10;68.10;;;;;;5031289;28;20479;-73
2023/07/01 11:36:43;;;;;;;3.88;1.52;;;25.10;69.10;;;;;;5041335;28;20036;-72
2023/07/01 11:39:13;;;;;;;3.88;1.60;;;25.10;68.90;;;;;;5051137;28;20029;-72
2023/07/01 11:41:40;;;;;;;2.67;1.40;;;25.00;67.80;;;;;;5049588;28;20033;-72
2023/07/01 11:44:11;;;;;;;2.95;1.80;;;24.90;68.50;;;;;;5050780;28;20391;-73
2023/07/01 11:46:38;;;;;;;3.38;1.58;;;25.00;69.50;;;;;;5051292;28;20559;-72
2023/07/01 11:49:17;;;;;;;4.38;1.60;;;25.10;68.20;;;;;;5051059;28;20025;-72
2023/07/01 11:51:47;;;;;;;3.15;1.52;;;25.20;68.50;;;;;;5050765;28;20017;-72
2023/07/01 11:54:14;;;;;;;4.15;1.95;;;25.30;68.10;;;;;;5051090;28;20029;-72
2023/07/01 11:56:40;;;;;;;4.43;1.48;;;25.40;66.90;;;;;;5049958;28;20035;-73
2023/07/01 11:59:06;;;;;;;5.80;1.58;;;25.40;66.00;;;;;;5050018;28;20561;-72
2023/07/01 12:01:32;;;;;;;4.07;1.48;;;25.40;65.60;;;;;;5053993;28;20368;-72
2023/07/01 12:03:58;;;;;;;2.72;1.90;;;25.40;66.70;;;;;;5054488;28;20047;-72
2023/07/01 12:06:25;;;;;;;4.70;2.10;;;25.40;66.30;;;;;;5054298;28;20021;-72
2023/07/01 12:08:56;;;;;;;3.60;1.80;;;25.50;64.90;;;;;;5054352;28;20025;-72
2023/07/01 12:11:23;;;;;;;3.83;1.85;;;25.40;65.00;;;;;;5054081;28;20039;-72
2023/07/01 12:13:49;;;;;;;3.55;1.70;;;25.40;65.40;;;;;;5054123;28;20064;-73
2023/07/01 12:16:15;;;;;;;4.50;1.80;;;25.50;66.30;;;;;;5054110;28;20044;-73
2023/07/01 12:18:41;;;;;;;5.28;1.73;;;25.40;67.00;;;;;;5053963;28;20029;-73
2023/07/01 12:21:07;;;;;;;5.25;1.55;;;25.40;67.50;;;;;;5053889;28;20510;-73
2023/07/01 12:23:43;;;;;;;4.03;1.70;;;25.30;67.30;;;;;;5052423;28;20029;-73
2023/07/01 12:26:12;;;;;;;4.05;1.85;;;25.20;67.20;;;;;;5053742;28;20422;-73
2023/07/01 12:28:39;;;;;;;2.75;1.50;;;25.10;68.10;;;;;;5053778;28;20056;-72
2023/07/01 12:31:06;;;;;;;1.85;1.27;;;24.90;68.20;;;;;;5052359;28;20036;-72
2023/07/01 12:33:33;;;;;;;6.57;1.50;;;24.90;69.10;;;;;;5053755;28;20021;-71
2023/07/01 12:35:58;;;;;;;3.60;2.35;;;24.80;68.20;;;;;;5053631;28;20123;-72
2023/07/01 12:38:25;;;;;;;2.92;1.80;;;24.70;68.20;;;;;;5054984;28;20077;-72
2023/07/01 12:40:54;;;;;;;3.85;2.38;;;24.80;67.90;;;;;;5054994;28;20029;-73
2023/07/01 12:43:21;;;;;;;2.67;1.60;;;24.80;69.00;;;;;;5054794;28;20391;-73
2023/07/01 12:45:48;;;;;;;3.28;1.60;;;24.80;69.70;;;;;;5054936;28;20032;-71
2023/07/01 12:48:14;;;;;;;4.30;1.60;;;24.60;69.70;;;;;;5053977;28;20424;-72
2023/07/01 12:50:40;;;;;;;1.83;1.30;;;24.60;71.10;;;;;;5052847;28;20052;-72